Parkman, WY

7:32 AM MDT on August 21, 2014 (GMT -0600)
Sheridan County | Change Station
CLOSE
Current Station
Airport
Location: Sheridan,
Elevation: 3967 ft
Nearby Weather Stations

Elev 3967 ft 44.76 °N, 106.97 °W | Updated 39 minutes ago

Overcast
Overcast
56 °F
Feels Like 56 °F
N
5
Wind Variable Wind from WSW

Today
High -- | Low -- °F
--% Chance of Precip.
Yesterday
High -- | Low -- °F
Precip. -- in
6:18 AM 8:05 PM
Waning Crescent, 14% visible
Pressure 29.93 in
Visibility 10.0 miles
Clouds Overcast 10000 ft
Dew Point 49 °F
Humidity 77%
Rainfall 0.00 in
Snow Depth Not available.
UV 0 out of 12
Pollen 8.50 out of 12
Air Quality Not available.
Flu Activity Not available.
METAR KSHR 211253Z AUTO 24004KT 10SM OVC100 13/09 A3001 RMK AO2 SLP133 T01330094

More Conditions Fewer Conditions

Pressure 29.93 in
Visibility 10.0 miles
Clouds Overcast 10000 ft
Dew Point 49 °F
Humidity 77%
Rainfall 0.00 in
Snow Depth Not available.
UV 0 out of 12
Pollen 8.50 out of 12
Air Quality Not available.
Flu Activity Not available.
METAR KSHR 211253Z AUTO 24004KT 10SM OVC100 13/09 A3001 RMK AO2 SLP133 T01330094

More Conditions Fewer Conditions

10-Day Weather Forecast

Almanac

Astronomy

Aug. 21, 2014 Rise Set
Actual Time 6:18 AM MDT 8:05 PM MDT
Civil Twilight 5:46 AM MDT 8:36 PM MDT
Nautical Twilight 5:08 AM MDT 9:14 PM MDT
Astronomical Twilight 4:27 AM MDT 9:56 PM MDT
Moon 2:46 AM MDT 5:40 PM MDT
Length of Visible Light 14h 49m
Length of Day
13h 47m
Tomorrow will be 2m 53s shorter.
Waning Crescent, 14% of the Moon is Illuminated
Today
Waning Crescent
Aug 25
New
Sep 2
First Quarter
Sep 8
Full
Sep 15
Last Quarter

Today's Extremes

State Highs State Lows

Community

WunderPhotos

Upload Photos

1,745,918 photos uploaded!

WunderBlogs® & News

Nearby

Snow Depth

Station Depth Elevation
Sylvan Lake 0 in 8420 ft
Casper Mountain 1 in 7850 ft
Base Camp 0 in 7030 ft
Townsend Creek 0 in 8700 ft
Reno Hill 0 in 8500 ft

Earthquake Activity

City Distance Mag. Time & Date
No recent earthquake activity has been reported nearby.
Minimum magnitude displayed is 2.5.

Coastal Water Temperatures

Place Temperature
No Stations Reporting

Nearby Weather Stations